Welcome to Northern Hawkes Bay. New Zealand.
PWS Header
      nz Flag



Hit Counter


W3C Valid W3C Valid logo


    Wairoa

Select any of the Stations below to visit their websites.










Historic Data from Weather Underground
Select the location of interest below. Wairoa is the default. Please have patience, this Data is slow to load in.
Northern Hawkes Bay Historical Data
Daily Summary for June 25, 2017 Units:  English    Metric   Both
« Previous Day
Next Day »
Daily Weekly Monthly Yearly Custom
  High: Low: Average:
Temperature: 64.6 °F 44.2 °F 52.5 °F
Dew Point: 51.6 °F 43 °F 48.2 °F
Humidity: 99% 54% 86%
Wind Speed: 8.3mph 0mph 3.2mph
Wind Gust: 12.1mph - -
Wind- - West
Pressure: 29.9 in 29.5 in -
Precipitation: 0 in    
Historical Graphs
 
 
Tabular Data for June 25, 2017
Time Temperature Dew Point Pressure Wind Wind Speed Wind Gust Humidity Rainfall Rate (Hourly) solar
00:01 52 °F 51.4 °F 29.5 in North 2.2 mph 4.5 mph 98% 0 in 0 W/m2
00:06 52 °F 51.4 °F 29.5 in North 1.6 mph 3.8 mph 98% 0 in 0 W/m2
00:11 52.2 °F 51.6 °F 29.5 in North 1.6 mph 3.1 mph 98% 0 in 0 W/m2
00:16 52.2 °F 51.6 °F 29.5 in North 1.6 mph 3.1 mph 98% 0 in 0 W/m2
00:21 52.2 °F 51.6 °F 29.5 in Calm   2.2 mph 98% 0 in 0 W/m2
00:26 52 °F 51.4 °F 29.5 in Calm   2.2 mph 98% 0 in 0 W/m2
00:31 51.8 °F 51.3 °F 29.5 in Calm   1.6 mph 98% 0 in 0 W/m2
00:36 51.6 °F 51.4 °F 29.5 in Calm   0.7 mph 99% 0 in 0 W/m2
00:41 51.4 °F 51.3 °F 29.5 in Calm   0.7 mph 99% 0 in 0 W/m2
00:46 51.3 °F 51.1 °F 29.5 in Calm   0.7 mph 99% 0 in 0 W/m2
00:51 51.1 °F 50.7 °F 29.5 in North 0.7 mph 2.2 mph 99% 0 in 0 W/m2
00:56 51.1 °F 50.7 °F 29.5 in North 2.2 mph 3.8 mph 99% 0 in 0 W/m2
01:01 50.9 °F 50.5 °F 29.5 in North 1.6 mph 4.5 mph 99% 0 in 0 W/m2
01:06 50.7 °F 50.5 °F 29.5 in NNW 4.5 mph 6 mph 99% 0 in 0 W/m2
01:11 50.5 °F 50.4 °F 29.5 in NNW 3.1 mph 6 mph 99% 0 in 0 W/m2
01:17 50.4 °F 50.2 °F 29.5 in NNW 0.7 mph 5.4 mph 99% 0 in 0 W/m2
01:22 50.2 °F 49.8 °F 29.5 in Calm   3.8 mph 99% 0 in 0 W/m2
01:27 50.2 °F 49.8 °F 29.5 in NW 2.2 mph 4.5 mph 99% 0 in 0 W/m2
01:32 50.2 °F 49.8 °F 29.5 in NNW 4.5 mph 6.9 mph 99% 0 in 0 W/m2
01:37 50.2 °F 49.8 °F 29.5 in NNW 3.1 mph 6.9 mph 99% 0 in 0 W/m2
01:42 50.2 °F 49.8 °F 29.5 in NNW 1.6 mph 6.9 mph 99% 0 in 0 W/m2
01:47 50.2 °F 49.8 °F 29.5 in NNW 1.6 mph 4.5 mph 99% 0 in 0 W/m2
01:52 50 °F 49.6 °F 29.5 in NW 3.1 mph 3.8 mph 99% 0 in 0 W/m2
01:57 50 °F 49.6 °F 29.5 in NW 1.6 mph 6 mph 99% 0 in 0 W/m2
02:02 49.8 °F 49.6 °F 29.5 in NNW 2.2 mph 6 mph 99% 0 in 0 W/m2
02:07 49.6 °F 49.5 °F 29.5 in NNW 2.2 mph 5.4 mph 99% 0 in 0 W/m2
02:12 49.6 °F 49.5 °F 29.5 in NNW 1.6 mph 4.5 mph 99% 0 in 0 W/m2
02:18 49.6 °F 49.5 °F 29.5 in NW 0.7 mph 3.8 mph 99% 0 in 0 W/m2
02:36 48.7 °F 48.6 °F 29.5 in NNE 2.2 mph 5.4 mph 99% 0 in 0 W/m2
02:41 48.7 °F 48.6 °F 29.5 in North 3.1 mph 5.4 mph 99% 0 in 0 W/m2
02:46 48.7 °F 48.6 °F 29.5 in North 3.1 mph 7.6 mph 99% 0 in 0 W/m2
02:51 48.7 °F 48.6 °F 29.5 in North 3.8 mph 7.6 mph 99% 0 in 0 W/m2
02:57 48.9 °F 48.7 °F 29.5 in NNW 4.5 mph 7.6 mph 99% 0 in 0 W/m2
03:03 49.1 °F 48.7 °F 29.5 in NNW 3.8 mph 8.3 mph 99% 0 in 0 W/m2
03:08 49.1 °F 48.7 °F 29.5 in NNW 4.5 mph 8.3 mph 99% 0 in 0 W/m2
03:13 49.1 °F 48.7 °F 29.5 in NNW 5.4 mph 8.3 mph 99% 0 in 0 W/m2
03:18 49.1 °F 48.6 °F 29.5 in NNW 4.5 mph 6.9 mph 98% 0 in 0 W/m2
03:23 49.1 °F 47.7 °F 29.5 in NNW 3.8 mph 6.9 mph 95% 0 in 0 W/m2
03:28 48.6 °F 46.9 °F 29.5 in North 3.8 mph 6.9 mph 94% 0 in 0 W/m2
03:33 47.8 °F 46.6 °F 29.5 in NNW 3.1 mph 6 mph 95% 0 in 0 W/m2
03:38 47.7 °F 46.2 °F 29.5 in NNW 3.1 mph 6 mph 95% 0 in 0 W/m2
03:43 47.5 °F 46 °F 29.5 in North 3.1 mph 6.9 mph 95% 0 in 0 W/m2
03:48 47.5 °F 45.9 °F 29.5 in NNW 3.8 mph 6.9 mph 94% 0 in 0 W/m2
03:53 47.5 °F 45.7 °F 29.5 in NNW 3.8 mph 6 mph 93% 0 in 0 W/m2
03:58 47.3 °F 45.3 °F 29.5 in North 3.1 mph 6 mph 93% 0 in 0 W/m2
04:03 47.3 °F 45.3 °F 29.5 in NNW 3.8 mph 6 mph 93% 0 in 0 W/m2
04:08 47.1 °F 45.5 °F 29.5 in NNW 3.8 mph 6 mph 94% 0 in 0 W/m2
04:13 47.1 °F 45.5 °F 29.5 in NNW 3.1 mph 6 mph 94% 0 in 0 W/m2
04:18 47.3 °F 45.7 °F 29.5 in North 3.8 mph 6 mph 94% 0 in 0 W/m2
04:23 47.3 °F 45.7 °F 29.5 in North 3.8 mph 6 mph 94% 0 in 0 W/m2
04:28 47.3 °F 45.7 °F 29.5 in North 2.2 mph 6 mph 94% 0 in 0 W/m2
04:33 47.1 °F 45.5 °F 29.6 in North 3.1 mph 6 mph 94% 0 in 0 W/m2
04:38 47.1 °F 45.1 °F 29.6 in North 3.8 mph 6 mph 93% 0 in 0 W/m2
04:45 46.8 °F 45.1 °F 29.6 in North 3.8 mph 7.6 mph 94% 0 in 0 W/m2
04:50 46.8 °F 45.1 °F 29.6 in NNW 5.4 mph 7.6 mph 94% 0 in 0 W/m2
04:55 46.8 °F 45.1 °F 29.6 in North 3.8 mph 6.9 mph 94% 0 in 0 W/m2
05:00 46.8 °F 44.8 °F 29.6 in NNW 4.5 mph 8.3 mph 93% 0 in 0 W/m2
05:05 46.8 °F 44.8 °F 29.6 in NNW 3.1 mph 8.3 mph 93% 0 in 0 W/m2
05:10 46.8 °F 44.6 °F 29.6 in North 3.1 mph 6.9 mph 92% 0 in 0 W/m2
05:15 46.6 °F 44.4 °F 29.6 in North 3.8 mph 6.9 mph 92% 0 in 0 W/m2
05:21 46.4 °F 44.2 °F 29.6 in North 3.8 mph 6.9 mph 92% 0 in 0 W/m2
05:27 46.2 °F 44.2 °F 29.6 in North 3.1 mph 7.6 mph 93% 0 in 0 W/m2
05:32 46 °F 44.1 °F 29.6 in North 3.8 mph 7.6 mph 93% 0 in 0 W/m2
05:37 45.9 °F 44.1 °F 29.6 in North 3.1 mph 6 mph 93% 0 in 0 W/m2
05:42 45.7 °F 43.9 °F 29.6 in North 2.2 mph 6 mph 93% 0 in 0 W/m2
05:47 45.7 °F 43.9 °F 29.6 in North 3.1 mph 5.4 mph 93% 0 in 0 W/m2
05:52 45.5 °F 43.9 °F 29.6 in NNW 3.1 mph 6.9 mph 94% 0 in 0 W/m2
05:57 45.3 °F 43.7 °F 29.6 in North 3.8 mph 6.9 mph 94% 0 in 0 W/m2
06:02 45.5 °F 43.9 °F 29.6 in North 3.1 mph 6.9 mph 94% 0 in 0 W/m2
06:07 45.5 °F 43.9 °F 29.6 in North 3.1 mph 7.6 mph 94% 0 in 0 W/m2
06:12 45.3 °F 43.7 °F 29.6 in NNW 3.8 mph 7.6 mph 94% 0 in 0 W/m2
06:17 45.3 °F 43.7 °F 29.6 in NNW 4.5 mph 8.3 mph 94% 0 in 0 W/m2
06:22 45.5 °F 43.9 °F 29.6 in North 4.5 mph 8.3 mph 94% 0 in 0 W/m2
06:27 45.3 °F 43.7 °F 29.6 in North 4.5 mph 8.3 mph 94% 0 in 0 W/m2
06:32 45.3 °F 43.7 °F 29.6 in NNW 3.8 mph 6.9 mph 94% 0 in 0 W/m2
06:37 45.3 °F 43.7 °F 29.6 in North 3.8 mph 7.6 mph 94% 0 in 0 W/m2
06:42 45.3 °F 43.7 °F 29.6 in North 4.5 mph 7.6 mph 94% 0 in 0 W/m2
06:47 45.5 °F 43.9 °F 29.6 in North 4.5 mph 8.3 mph 94% 0 in 0 W/m2
06:52 45.5 °F 43.9 °F 29.6 in NNW 2.2 mph 8.3 mph 94% 0 in 0 W/m2
06:57 45.3 °F 43.7 °F 29.6 in North 3.8 mph 7.6 mph 94% 0 in 0 W/m2
07:02 45.3 °F 43.3 °F 29.6 in North 3.1 mph 7.6 mph 93% 0 in 0 W/m2
07:07 45.1 °F 43.2 °F 29.6 in North 3.1 mph 7.6 mph 93% 0 in 0 W/m2
07:12 45 °F 43.2 °F 29.6 in NNW 3.1 mph 7.6 mph 93% 0 in 0 W/m2
07:17 44.8 °F 43.2 °F 29.6 in NW 2.2 mph 5.4 mph 94% 0 in 0 W/m2
07:22 44.6 °F 43 °F 29.6 in NNW 1.6 mph 5.4 mph 94% 0 in 0 W/m2
07:27 44.2 °F 43 °F 29.6 in North 2.2 mph 3.8 mph 95% 0 in 0 W/m2
07:32 44.2 °F 43.2 °F 29.6 in North 1.6 mph 3.8 mph 96% 0 in 0 W/m2
07:37 44.2 °F 43.2 °F 29.6 in North 2.2 mph 3.8 mph 96% 0 in 2 W/m2
07:42 44.2 °F 43.2 °F 29.6 in North 2.2 mph 4.5 mph 96% 0 in 4 W/m2
07:47 44.6 °F 43.5 °F 29.6 in NNW 2.2 mph 4.5 mph 96% 0 in 5 W/m2
07:52 45 °F 43.9 °F 29.6 in NNW 3.8 mph 6.9 mph 96% 0 in 8 W/m2
07:57 45.3 °F 44.1 °F 29.6 in NNW 4.5 mph 7.6 mph 95% 0 in 17 W/m2
08:02 45.9 °F 44.4 °F 29.6 in North 4.5 mph 8.3 mph 95% 0 in 32 W/m2
08:07 46.8 °F 44.8 °F 29.6 in NNW 4.5 mph 9.2 mph 93% 0 in 66 W/m2
08:13 47.7 °F 45.1 °F 29.6 in NNW 3.8 mph 9.2 mph 91% 0 in 79 W/m2
08:19 48.4 °F 44.8 °F 29.6 in NNW 6.9 mph 8.3 mph 87% 0 in 98 W/m2
08:24 48.9 °F 45 °F 29.6 in NNW 5.4 mph 9.2 mph 86% 0 in 109 W/m2
08:29 49.3 °F 45 °F 29.6 in NNW 4.5 mph 9.2 mph 85% 0 in 122 W/m2
08:45 49.6 °F 45.3 °F 29.6 in North 7.6 mph 9.2 mph 85% 0 in 150 W/m2
08:51 50 °F 45.3 °F 29.6 in NNE 4.5 mph 9.2 mph 84% 0 in 159 W/m2
08:56 50.4 °F 45.7 °F 29.6 in NE 3.8 mph 9.2 mph 84% 0 in 167 W/m2
09:01 50.5 °F 45.7 °F 29.6 in NE 4.5 mph 6.9 mph 83% 0 in 174 W/m2
09:06 50.5 °F 45.7 °F 29.6 in North 4.5 mph 8.3 mph 83% 0 in 180 W/m2
09:11 50.9 °F 45.9 °F 29.6 in NNW 5.4 mph 8.3 mph 83% 0 in 186 W/m2
09:16 51.3 °F 46.2 °F 29.6 in North 3.8 mph 8.3 mph 83% 0 in 191 W/m2
09:21 51.4 °F 45.9 °F 29.6 in North 5.4 mph 8.3 mph 81% 0 in 197 W/m2
09:26 51.4 °F 45.9 °F 29.6 in North 7.6 mph 12.1 mph 81% 0 in 201 W/m2
09:31 51.6 °F 46 °F 29.7 in North 5.4 mph 12.1 mph 81% 0 in 209 W/m2
09:36 52 °F 46 °F 29.7 in North 6 mph 12.1 mph 80% 0 in 216 W/m2
09:41 52.3 °F 46 °F 29.7 in North 4.5 mph 10.7 mph 79% 0 in 220 W/m2
09:46 52.7 °F 46 °F 29.7 in North 6 mph 10.7 mph 78% 0 in 206 W/m2
09:51 53.2 °F 45.9 °F 29.7 in North 3.8 mph 11.4 mph 76% 0 in 175 W/m2
09:56 53.6 °F 45.5 °F 29.7 in North 5.4 mph 11.4 mph 74% 0 in 104 W/m2
10:01 54 °F 45.9 °F 29.7 in North 7.6 mph 11.4 mph 74% 0 in 111 W/m2
10:06 54.1 °F 45.7 °F 29.7 in NNW 7.6 mph 11.4 mph 73% 0 in 117 W/m2
10:11 54.7 °F 46.2 °F 29.7 in North 7.6 mph 11.4 mph 73% 0 in 107 W/m2
10:16 55 °F 46.6 °F 29.7 in North 7.6 mph 10.7 mph 73% 0 in 82 W/m2
10:21 55.4 °F 46.9 °F 29.7 in North 6 mph 10.7 mph 73% 0 in 72 W/m2
10:26 55.8 °F 46.9 °F 29.7 in North 6 mph 10.7 mph 72% 0 in 72 W/m2
10:31 55.9 °F 47.1 °F 29.7 in NNE 4.5 mph 10.7 mph 72% 0 in 60 W/m2
10:36 55.2 °F 46.4 °F 29.7 in NNE 3.1 mph 10.7 mph 72% 0 in 58 W/m2
10:41 55.6 °F 47.1 °F 29.7 in North 3.8 mph 9.8 mph 73% 0 in 59 W/m2
10:46 56.1 °F 47.7 °F 29.7 in North 6.9 mph 9.2 mph 73% 0 in 56 W/m2
11:05 57.2 °F 48.4 °F 29.7 in NNW 6 mph 9.8 mph 72% 0 in 55 W/m2
11:10 57.6 °F 48.2 °F 29.7 in NW 4.5 mph 10.7 mph 71% 0 in 56 W/m2
11:15 57.7 °F 48.4 °F 29.7 in NNW 6 mph 11.4 mph 71% 0 in 57 W/m2
11:20 58.3 °F 48.9 °F 29.7 in North 5.4 mph 11.4 mph 71% 0 in 58 W/m2
11:25 59.2 °F 48.9 °F 29.7 in NNW 5.4 mph 9.8 mph 69% 0 in 59 W/m2
11:30 59.2 °F 48.2 °F 29.7 in NNW 6 mph 11.4 mph 67% 0 in 61 W/m2
11:35 59.5 °F 48.6 °F 29.7 in NNW 8.3 mph 11.4 mph 67% 0 in 62 W/m2
11:40 59.9 °F 48.9 °F 29.7 in North 6.9 mph 11.4 mph 67% 0 in 63 W/m2
11:45 60.1 °F 49.1 °F 29.7 in NNE 5.4 mph 11.4 mph 67% 0 in 64 W/m2
11:50 60.1 °F 48.7 °F 29.7 in North 6 mph 9.8 mph 66% 0 in 68 W/m2
11:55 60.6 °F 49.3 °F 29.7 in North 6 mph 9.8 mph 66% 0 in 72 W/m2
12:00 60.8 °F 48.9 °F 29.7 in North 6 mph 9.8 mph 65% 0 in 79 W/m2
12:05 61 °F 49.1 °F 29.7 in North 3.8 mph 9.2 mph 65% 0 in 86 W/m2
12:10 61 °F 49.1 °F 29.7 in North 6.9 mph 10.7 mph 65% 0 in 91 W/m2
12:15 61.7 °F 48.9 °F 29.7 in NW 4.5 mph 10.7 mph 63% 0 in 97 W/m2
12:20 61.7 °F 47.7 °F 29.7 in NW 6.9 mph 9.2 mph 60% 0 in 103 W/m2
12:25 61.7 °F 47.7 °F 29.7 in NNW 4.5 mph 9.8 mph 60% 0 in 95 W/m2
12:30 61.7 °F 48.6 °F 29.7 in NNW 5.4 mph 9.8 mph 62% 0 in 87 W/m2
12:35 61.2 °F 47.1 °F 29.7 in North 2.2 mph 8.3 mph 60% 0 in 86 W/m2
12:38 61.2 °F 48 °F 29.7 in North 3.8 mph 8.3 mph 62% 0 in 94 W/m2
12:43 61.5 °F 48.4 °F 29.7 in NNW 3.1 mph 7.6 mph 62% 0 in 113 W/m2
12:48 62.2 °F 48.2 °F 29.7 in NW 5.4 mph 7.6 mph 60% 0 in 114 W/m2
12:53 62.2 °F 46.8 °F 29.7 in NNW 4.5 mph 8.3 mph 57% 0 in 101 W/m2
12:58 62.6 °F 47.1 °F 29.7 in NW 5.4 mph 8.3 mph 57% 0 in 87 W/m2
13:03 63.1 °F 47.1 °F 29.7 in NW 4.5 mph 6.9 mph 56% 0 in 71 W/m2
13:08 63.5 °F 46.6 °F 29.7 in NNW 6 mph 8.3 mph 54% 0 in 65 W/m2
13:13 63.5 °F 47.1 °F 29.7 in NNW 3.1 mph 8.3 mph 55% 0 in 65 W/m2
13:18 64.4 °F 47.8 °F 29.7 in NNW 5.4 mph 8.3 mph 55% 0 in 87 W/m2
13:23 64.4 °F 47.8 °F 29.7 in North 3.8 mph 8.3 mph 55% 0 in 85 W/m2
13:28 64.6 °F 48 °F 29.7 in North 4.5 mph 8.3 mph 55% 0 in 80 W/m2
13:33 64.2 °F 47.1 °F 29.7 in North 3.8 mph 9.2 mph 54% 0 in 76 W/m2
13:38 64.4 °F 48.4 °F 29.7 in North 4.5 mph 9.2 mph 56% 0 in 79 W/m2
13:56 61.9 °F 47.5 °F 29.7 in NNW 4.5 mph 8.3 mph 59% 0 in 84 W/m2
14:01 61.3 °F 47.3 °F 29.7 in NNW 3.1 mph 8.3 mph 60% 0 in 111 W/m2
14:06 61.2 °F 48 °F 29.7 in NNW 3.1 mph 8.3 mph 62% 0 in 103 W/m2
14:11 60.8 °F 47.7 °F 29.7 in NNW 3.8 mph 8.3 mph 62% 0 in 65 W/m2
14:16 60.3 °F 48 °F 29.7 in North 2.2 mph 6.9 mph 64% 0 in 53 W/m2
14:34 59.5 °F 48.6 °F 29.7 in NNE 2.2 mph 5.4 mph 67% 0 in 62 W/m2
14:39 59.4 °F 48.7 °F 29.7 in North 0.7 mph 4.5 mph 68% 0 in 65 W/m2
14:44 59.7 °F 49.3 °F 29.7 in North 3.1 mph 4.5 mph 68% 0 in 131 W/m2
14:49 60.3 °F 49.3 °F 29.7 in North 1.6 mph 4.5 mph 67% 0 in 93 W/m2
14:54 60.3 °F 49.3 °F 29.7 in North 1.6 mph 4.5 mph 67% 0 in 175 W/m2
14:59 61.7 °F 50.2 °F 29.7 in North 3.8 mph 5.4 mph 66% 0 in 189 W/m2
15:04 61.5 °F 48.7 °F 29.7 in North 2.2 mph 6.9 mph 63% 0 in 124 W/m2
15:09 61.7 °F 49.8 °F 29.7 in NNW 1.6 mph 6.9 mph 65% 0 in 116 W/m2
15:14 61.2 °F 49.3 °F 29.7 in NNW 3.1 mph 6 mph 65% 0 in 66 W/m2
15:19 60.1 °F 49.5 °F 29.7 in North 3.1 mph 6 mph 68% 0 in 56 W/m2
15:25 59.7 °F 49.8 °F 29.7 in North 3.1 mph 5.4 mph 70% 0 in 47 W/m2
15:30 59.2 °F 50.5 °F 29.7 in North 2.2 mph 5.4 mph 73% 0 in 46 W/m2
15:35 59 °F 50.7 °F 29.7 in North 3.1 mph 5.4 mph 74% 0 in 38 W/m2
15:40 58.6 °F 51.1 °F 29.7 in NNW 3.1 mph 4.5 mph 76% 0 in 29 W/m2
15:45 58.3 °F 51.1 °F 29.7 in NNW 2.2 mph 5.4 mph 77% 0 in 25 W/m2
15:50 58.3 °F 51.1 °F 29.7 in North 3.1 mph 5.4 mph 77% 0 in 24 W/m2
15:56 57.9 °F 50.7 °F 29.7 in North 2.2 mph 3.8 mph 77% 0 in 22 W/m2
16:01 57.7 °F 50.5 °F 29.7 in North 1.6 mph 3.8 mph 77% 0 in 19 W/m2
16:06 57.4 °F 50.2 °F 29.7 in NNE 2.2 mph 4.5 mph 77% 0 in 13 W/m2
16:11 57.2 °F 50.2 °F 29.7 in NNE 1.6 mph 4.5 mph 77% 0 in 9 W/m2
16:16 56.8 °F 50.2 °F 29.7 in North 2.2 mph 4.5 mph 78% 0 in 6 W/m2
16:21 56.8 °F 50.2 °F 29.7 in North 1.6 mph 3.8 mph 78% 0 in 4 W/m2
16:26 56.7 °F 50.2 °F 29.7 in North 1.6 mph 3.8 mph 79% 0 in 4 W/m2
16:31 56.8 °F 50.4 °F 29.7 in North 0.7 mph 3.8 mph 79% 0 in 4 W/m2
16:36 56.8 °F 50.4 °F 29.7 in North 2.2 mph 3.8 mph 79% 0 in 6 W/m2
16:41 57.6 °F 50.7 °F 29.7 in NNW 1.6 mph 3.8 mph 78% 0 in 4 W/m2
16:46 57.2 °F 50.2 °F 29.7 in North 2.2 mph 3.8 mph 77% 0 in 2 W/m2
16:51 56.8 °F 50.2 °F 29.7 in North 1.6 mph 3.1 mph 78% 0 in 2 W/m2
16:56 56.3 °F 49.8 °F 29.7 in North 1.6 mph 3.1 mph 79% 0 in 0 W/m2
17:01 55.9 °F 49.8 °F 29.7 in NNW 1.6 mph 3.1 mph 80% 0 in 0 W/m2
17:06 55.8 °F 50 °F 29.7 in NNW 2.2 mph 3.8 mph 81% 0 in 0 W/m2
17:11 55.6 °F 50.2 °F 29.7 in NW 3.8 mph 5.4 mph 82% 0 in 0 W/m2
17:16 55.2 °F 50.2 °F 29.7 in NNW 1.6 mph 5.4 mph 83% 0 in 0 W/m2
17:21 54.9 °F 49.8 °F 29.7 in NNW 0.7 mph 5.4 mph 83% 0 in 0 W/m2
17:26 54.5 °F 49.8 °F 29.7 in NW 1.6 mph 3.1 mph 84% 0 in 0 W/m2
17:31 54.1 °F 49.6 °F 29.7 in NNW 1.6 mph 3.1 mph 85% 0 in 0 W/m2
17:36 53.8 °F 49.5 °F 29.7 in North 1.6 mph 3.1 mph 85% 0 in 0 W/m2
17:41 53.6 °F 49.5 °F 29.7 in NNW 2.2 mph 3.8 mph 86% 0 in 0 W/m2
17:46 53.4 °F 50 °F 29.7 in NNW 3.1 mph 3.8 mph 88% 0 in 0 W/m2
17:51 53.2 °F 50.2 °F 29.7 in NNW 1.6 mph 3.8 mph 89% 0 in 0 W/m2
17:56 53.1 °F 50.2 °F 29.7 in NNW 1.6 mph 3.8 mph 90% 0 in 0 W/m2
18:01 52.9 °F 50.4 °F 29.7 in NNW 2.2 mph 3.8 mph 91% 0 in 0 W/m2
18:06 52.7 °F 50.2 °F 29.7 in NNW 2.2 mph 3.8 mph 91% 0 in 0 W/m2
18:11 52.7 °F 50.4 °F 29.7 in North 2.2 mph 4.5 mph 92% 0 in 0 W/m2
18:16 52.7 °F 50.4 °F 29.7 in North 1.6 mph 4.5 mph 92% 0 in 0 W/m2
18:21 52.7 °F 50.4 °F 29.7 in NNW 2.2 mph 4.5 mph 92% 0 in 0 W/m2
18:26 52.5 °F 50.4 °F 29.7 in NNW 2.2 mph 4.5 mph 92% 0 in 0 W/m2
18:31 52.5 °F 50.4 °F 29.7 in NNW 1.6 mph 3.8 mph 92% 0 in 0 W/m2
18:36 52.3 °F 50.2 °F 29.8 in NW 2.2 mph 3.8 mph 92% 0 in 0 W/m2
18:41 52.2 °F 49.8 °F 29.8 in NW 1.6 mph 3.8 mph 92% 0 in 0 W/m2
18:46 52.2 °F 49.8 °F 29.8 in NW 2.2 mph 3.8 mph 92% 0 in 0 W/m2
18:51 51.8 °F 49.8 °F 29.8 in NW 2.2 mph 3.8 mph 93% 0 in 0 W/m2
18:56 52.2 °F 50.2 °F 29.8 in NW 3.1 mph 3.8 mph 93% 0 in 0 W/m2
19:01 52.2 °F 50.2 °F 29.8 in NNW 2.2 mph 3.8 mph 93% 0 in 0 W/m2
19:06 51.8 °F 49.8 °F 29.8 in NW 2.2 mph 4.5 mph 93% 0 in 0 W/m2
19:11 51.8 °F 50.2 °F 29.8 in NW 3.1 mph 4.5 mph 94% 0 in 0 W/m2
19:16 52.2 °F 50.5 °F 29.8 in NW 3.8 mph 5.4 mph 94% 0 in 0 W/m2
19:21 52.3 °F 50.7 °F 29.8 in NW 4.5 mph 7.6 mph 94% 0 in 0 W/m2
19:26 52.5 °F 50.7 °F 29.8 in NW 5.4 mph 7.6 mph 94% 0 in 0 W/m2
19:31 52.7 °F 51.1 °F 29.8 in NNW 3.8 mph 7.6 mph 94% 0 in 0 W/m2
19:36 52.9 °F 51.3 °F 29.8 in NNW 3.1 mph 7.6 mph 94% 0 in 0 W/m2
19:41 52.9 °F 51.3 °F 29.8 in NNW 4.5 mph 7.6 mph 94% 0 in 0 W/m2
19:46 52.9 °F 50.9 °F 29.8 in NNW 5.4 mph 7.6 mph 93% 0 in 0 W/m2
19:51 53.1 °F 51.1 °F 29.8 in NNW 4.5 mph 8.3 mph 93% 0 in 0 W/m2
19:56 53.1 °F 51.1 °F 29.8 in NNW 2.2 mph 8.3 mph 93% 0 in 0 W/m2
20:01 52.9 °F 50.9 °F 29.8 in NW 3.8 mph 7.6 mph 93% 0 in 0 W/m2
20:06 52.9 °F 50.9 °F 29.8 in NW 2.2 mph 5.4 mph 93% 0 in 0 W/m2
20:11 52.5 °F 50.5 °F 29.8 in NW 3.8 mph 5.4 mph 93% 0 in 0 W/m2
20:16 52.3 °F 50.4 °F 29.8 in NW 1.6 mph 4.5 mph 93% 0 in 0 W/m2
20:21 52.2 °F 50.2 °F 29.8 in NNW 0.7 mph 4.5 mph 93% 0 in 0 W/m2
20:26 52.2 °F 50.2 °F 29.8 in Calm   3.1 mph 93% 0 in 0 W/m2
20:31 52.2 °F 50.5 °F 29.8 in Calm   1.6 mph 94% 0 in 0 W/m2
20:36 51.8 °F 50.2 °F 29.8 in NNE 0.7 mph 2.2 mph 94% 0 in 0 W/m2
20:41 52.2 °F 50.5 °F 29.8 in North 1.6 mph 3.8 mph 94% 0 in 0 W/m2
20:46 52.2 °F 50.5 °F 29.8 in North 1.6 mph 3.8 mph 94% 0 in 0 W/m2
20:51 52.2 °F 50.5 °F 29.8 in NNW 1.6 mph 3.1 mph 94% 0 in 0 W/m2
20:56 51.8 °F 50.2 °F 29.8 in NW 2.2 mph 3.8 mph 94% 0 in 0 W/m2
21:01 51.8 °F 50.4 °F 29.8 in NW 2.2 mph 3.8 mph 95% 0 in 0 W/m2
21:06 51.8 °F 50.4 °F 29.8 in NW 1.6 mph 3.8 mph 95% 0 in 0 W/m2
21:11 51.8 °F 50.4 °F 29.8 in NW 2.2 mph 3.8 mph 95% 0 in 0 W/m2
21:16 51.8 °F 50.4 °F 29.8 in NW 0.7 mph 3.8 mph 95% 0 in 0 W/m2
21:21 51.6 °F 50.5 °F 29.8 in NW 2.2 mph 3.1 mph 96% 0 in 0 W/m2
21:26 51.6 °F 50.5 °F 29.8 in NW 1.6 mph 3.1 mph 96% 0 in 0 W/m2
21:31 51.4 °F 50.4 °F 29.8 in NW 1.6 mph 3.8 mph 96% 0 in 0 W/m2
21:36 51.3 °F 50.2 °F 29.8 in NW 1.6 mph 3.8 mph 96% 0 in 0 W/m2
21:41 51.1 °F 50.4 °F 29.8 in NW 1.6 mph 3.8 mph 97% 0 in 0 W/m2
21:46 51.1 °F 50.4 °F 29.8 in NW 2.2 mph 3.8 mph 97% 0 in 0 W/m2
21:51 50.9 °F 50.2 °F 29.8 in NW 2.2 mph 3.8 mph 97% 0 in 0 W/m2
21:56 50.7 °F 49.8 °F 29.8 in NW 3.8 mph 6 mph 97% 0 in 0 W/m2
22:01 50.7 °F 49.8 °F 29.8 in NW 3.1 mph 6 mph 97% 0 in 0 W/m2
22:06 50.7 °F 50.2 °F 29.8 in NW 3.1 mph 6 mph 98% 0 in 0 W/m2
22:11 50.5 °F 50 °F 29.8 in NW 3.8 mph 6 mph 98% 0 in 0 W/m2
22:16 50.5 °F 50 °F 29.8 in NW 2.2 mph 6 mph 98% 0 in 0 W/m2
22:21 50.2 °F 49.6 °F 29.8 in NW 2.2 mph 5.4 mph 98% 0 in 0 W/m2
22:26 50 °F 49.5 °F 29.8 in NW 2.2 mph 4.5 mph 98% 0 in 0 W/m2
22:31 49.8 °F 49.6 °F 29.8 in NW 2.2 mph 3.8 mph 99% 0 in 0 W/m2
22:36 49.6 °F 49.5 °F 29.8 in NW 2.2 mph 3.8 mph 99% 0 in 0 W/m2
22:41 49.6 °F 49.5 °F 29.8 in NW 2.2 mph 3.8 mph 99% 0 in 0 W/m2
22:46 49.3 °F 48.9 °F 29.8 in NW 2.2 mph 4.5 mph 99% 0 in 0 W/m2
22:51 49.3 °F 48.9 °F 29.8 in NW 3.1 mph 4.5 mph 99% 0 in 0 W/m2
22:56 49.3 °F 48.9 °F 29.8 in NNW 3.1 mph 5.4 mph 99% 0 in 0 W/m2
23:01 49.3 °F 48.9 °F 29.8 in NNW 2.2 mph 5.4 mph 99% 0 in 0 W/m2
23:06 49.3 °F 48.9 °F 29.8 in NW 3.1 mph 3.8 mph 99% 0 in 0 W/m2
23:11 49.1 °F 48.7 °F 29.8 in NNW 3.1 mph 5.4 mph 99% 0 in 0 W/m2
23:16 49.1 °F 48.7 °F 29.9 in NNW 3.1 mph 5.4 mph 99% 0 in 0 W/m2
23:21 49.3 °F 48.9 °F 29.8 in NNW 2.2 mph 5.4 mph 99% 0 in 0 W/m2
23:26 49.1 °F 48.7 °F 29.9 in NNW 2.2 mph 4.5 mph 99% 0 in 0 W/m2
23:31 48.9 °F 48.7 °F 29.9 in NNW 3.1 mph 3.8 mph 99% 0 in 0 W/m2
23:36 48.9 °F 48.7 °F 29.9 in NNW 3.1 mph 4.5 mph 99% 0 in 0 W/m2
23:41 48.7 °F 48.6 °F 29.9 in NNW 2.2 mph 4.5 mph 99% 0 in 0 W/m2
23:46 48.9 °F 48.7 °F 29.9 in NW 2.2 mph 4.5 mph 99% 0 in 0 W/m2
23:51 48.9 °F 48.7 °F 29.9 in NW 1.6 mph 4.5 mph 99% 0 in 0 W/m2
Northern Hawkes Bay. New Zealand Historic Data
Compliments of Weather Underground - 2 mb